sensor_id;sensor_type;location;lat;lon;timestamp;P1;durP1;ratioP1;P2;durP2;ratioP2
56810;SDS011;42691;47.234;27.494;2022-12-07T00:00:55;15.35;;;9.48;;
56810;SDS011;42691;47.234;27.494;2022-12-07T00:03:30;12.07;;;8.55;;
56810;SDS011;42691;47.234;27.494;2022-12-07T00:05:59;14.93;;;8.27;;
56810;SDS011;42691;47.234;27.494;2022-12-07T00:08:25;10.50;;;8.48;;
56810;SDS011;42691;47.234;27.494;2022-12-07T00:10:50;10.43;;;9.05;;
56810;SDS011;42691;47.234;27.494;2022-12-07T00:13:16;10.65;;;7.82;;
56810;SDS011;42691;47.234;27.494;2022-12-07T00:15:41;9.32;;;7.88;;
56810;SDS011;42691;47.234;27.494;2022-12-07T00:18:07;12.98;;;10.15;;
56810;SDS011;42691;47.234;27.494;2022-12-07T00:20:32;12.68;;;9.40;;
56810;SDS011;42691;47.234;27.494;2022-12-07T00:22:58;11.18;;;7.88;;
56810;SDS011;42691;47.234;27.494;2022-12-07T00:25:24;16.02;;;8.27;;
56810;SDS011;42691;47.234;27.494;2022-12-07T00:27:49;11.38;;;7.18;;
56810;SDS011;42691;47.234;27.494;2022-12-07T00:30:15;11.07;;;8.55;;
56810;SDS011;42691;47.234;27.494;2022-12-07T00:32:40;10.10;;;7.32;;
56810;SDS011;42691;47.234;27.494;2022-12-07T00:35:06;11.20;;;7.70;;
56810;SDS011;42691;47.234;27.494;2022-12-07T00:37:31;11.75;;;6.93;;
56810;SDS011;42691;47.234;27.494;2022-12-07T00:39:57;15.18;;;7.40;;
56810;SDS011;42691;47.234;27.494;2022-12-07T00:42:22;14.45;;;10.48;;
56810;SDS011;42691;47.234;27.494;2022-12-07T00:44:47;13.70;;;10.57;;
56810;SDS011;42691;47.234;27.494;2022-12-07T00:47:13;19.75;;;14.88;;
56810;SDS011;42691;47.234;27.494;2022-12-07T00:49:38;13.70;;;10.32;;
56810;SDS011;42691;47.234;27.494;2022-12-07T00:52:04;21.27;;;15.65;;
56810;SDS011;42691;47.234;27.494;2022-12-07T00:54:29;24.52;;;14.52;;
56810;SDS011;42691;47.234;27.494;2022-12-07T00:56:55;15.70;;;13.38;;
56810;SDS011;42691;47.234;27.494;2022-12-07T00:59:20;17.20;;;10.68;;
56810;SDS011;42691;47.234;27.494;2022-12-07T01:01:45;17.40;;;10.70;;
56810;SDS011;42691;47.234;27.494;2022-12-07T01:04:11;14.32;;;12.73;;
56810;SDS011;42691;47.234;27.494;2022-12-07T01:06:36;15.18;;;10.10;;
56810;SDS011;42691;47.234;27.494;2022-12-07T01:09:02;13.90;;;10.43;;
56810;SDS011;42691;47.234;27.494;2022-12-07T01:11:29;16.95;;;12.68;;
56810;SDS011;42691;47.234;27.494;2022-12-07T01:13:56;14.98;;;10.15;;
56810;SDS011;42691;47.234;27.494;2022-12-07T01:16:23;14.38;;;11.40;;
56810;SDS011;42691;47.234;27.494;2022-12-07T01:18:50;18.25;;;11.70;;
56810;SDS011;42691;47.234;27.494;2022-12-07T01:21:20;13.38;;;11.20;;
56810;SDS011;42691;47.234;27.494;2022-12-07T01:23:48;14.85;;;8.88;;
56810;SDS011;42691;47.234;27.494;2022-12-07T01:26:15;13.52;;;10.15;;
56810;SDS011;42691;47.234;27.494;2022-12-07T01:28:43;13.48;;;11.38;;
56810;SDS011;42691;47.234;27.494;2022-12-07T01:31:10;15.85;;;10.32;;
56810;SDS011;42691;47.234;27.494;2022-12-07T01:33:40;17.85;;;13.65;;
56810;SDS011;42691;47.234;27.494;2022-12-07T01:36:07;15.30;;;11.40;;
56810;SDS011;42691;47.234;27.494;2022-12-07T01:38:37;16.38;;;11.35;;
56810;SDS011;42691;47.234;27.494;2022-12-07T01:41:03;22.30;;;12.27;;
56810;SDS011;42691;47.234;27.494;2022-12-07T01:43:29;14.30;;;9.55;;
56810;SDS011;42691;47.234;27.494;2022-12-07T01:45:56;14.75;;;10.50;;
56810;SDS011;42691;47.234;27.494;2022-12-07T01:48:24;19.17;;;11.30;;
56810;SDS011;42691;47.234;27.494;2022-12-07T01:51:08;12.00;;;10.90;;
56810;SDS011;42691;47.234;27.494;2022-12-07T01:53:36;13.65;;;10.77;;
56810;SDS011;42691;47.234;27.494;2022-12-07T01:56:05;14.07;;;10.80;;
56810;SDS011;42691;47.234;27.494;2022-12-07T01:58:35;11.68;;;9.20;;
56810;SDS011;42691;47.234;27.494;2022-12-07T02:01:02;14.07;;;9.60;;
56810;SDS011;42691;47.234;27.494;2022-12-07T02:03:30;18.50;;;10.80;;
56810;SDS011;42691;47.234;27.494;2022-12-07T02:05:59;12.27;;;8.98;;
56810;SDS011;42691;47.234;27.494;2022-12-07T02:08:25;9.63;;;7.95;;
56810;SDS011;42691;47.234;27.494;2022-12-07T02:10:51;17.45;;;12.48;;
56810;SDS011;42691;47.234;27.494;2022-12-07T02:13:20;14.05;;;9.73;;
56810;SDS011;42691;47.234;27.494;2022-12-07T02:15:59;15.25;;;10.13;;
56810;SDS011;42691;47.234;27.494;2022-12-07T02:18:45;11.48;;;8.85;;
56810;SDS011;42691;47.234;27.494;2022-12-07T02:29:40;13.50;;;8.57;;
56810;SDS011;42691;47.234;27.494;2022-12-07T02:32:13;16.83;;;10.75;;
56810;SDS011;42691;47.234;27.494;2022-12-07T02:34:49;11.88;;;8.85;;
56810;SDS011;42691;47.234;27.494;2022-12-07T02:40:38;12.82;;;8.88;;
56810;SDS011;42691;47.234;27.494;2022-12-07T02:43:02;11.27;;;8.07;;
56810;SDS011;42691;47.234;27.494;2022-12-07T02:45:34;10.90;;;9.57;;
56810;SDS011;42691;47.234;27.494;2022-12-07T02:48:01;10.07;;;7.63;;
56810;SDS011;42691;47.234;27.494;2022-12-07T02:50:29;13.77;;;10.20;;
56810;SDS011;42691;47.234;27.494;2022-12-07T02:52:54;15.38;;;8.88;;
56810;SDS011;42691;47.234;27.494;2022-12-07T02:55:23;11.43;;;8.82;;
56810;SDS011;42691;47.234;27.494;2022-12-07T03:00:35;15.13;;;9.13;;
56810;SDS011;42691;47.234;27.494;2022-12-07T03:03:24;11.63;;;7.03;;
56810;SDS011;42691;47.234;27.494;2022-12-07T03:08:49;12.25;;;9.05;;
56810;SDS011;42691;47.234;27.494;2022-12-07T03:11:25;10.75;;;7.75;;
56810;SDS011;42691;47.234;27.494;2022-12-07T03:14:00;11.85;;;7.90;;
56810;SDS011;42691;47.234;27.494;2022-12-07T03:16:30;12.63;;;8.40;;
56810;SDS011;42691;47.234;27.494;2022-12-07T03:19:02;9.38;;;7.57;;
56810;SDS011;42691;47.234;27.494;2022-12-07T03:21:33;9.82;;;7.32;;
56810;SDS011;42691;47.234;27.494;2022-12-07T03:24:05;16.88;;;7.90;;
56810;SDS011;42691;47.234;27.494;2022-12-07T03:26:36;12.25;;;7.32;;
56810;SDS011;42691;47.234;27.494;2022-12-07T03:29:07;9.43;;;7.88;;
56810;SDS011;42691;47.234;27.494;2022-12-07T03:31:45;12.68;;;9.07;;
56810;SDS011;42691;47.234;27.494;2022-12-07T03:34:31;12.20;;;10.25;;
56810;SDS011;42691;47.234;27.494;2022-12-07T03:37:04;10.93;;;8.80;;
56810;SDS011;42691;47.234;27.494;2022-12-07T03:39:39;15.55;;;8.02;;
56810;SDS011;42691;47.234;27.494;2022-12-07T03:42:10;11.35;;;8.05;;
56810;SDS011;42691;47.234;27.494;2022-12-07T03:44:36;14.00;;;9.00;;
56810;SDS011;42691;47.234;27.494;2022-12-07T03:47:04;16.13;;;9.82;;
56810;SDS011;42691;47.234;27.494;2022-12-07T03:49:46;10.50;;;8.65;;
56810;SDS011;42691;47.234;27.494;2022-12-07T03:55:18;11.25;;;8.48;;
56810;SDS011;42691;47.234;27.494;2022-12-07T03:57:50;9.32;;;8.32;;
56810;SDS011;42691;47.234;27.494;2022-12-07T04:00:19;9.30;;;8.32;;
56810;SDS011;42691;47.234;27.494;2022-12-07T04:02:45;10.63;;;6.20;;
56810;SDS011;42691;47.234;27.494;2022-12-07T04:05:10;10.63;;;6.97;;
56810;SDS011;42691;47.234;27.494;2022-12-07T04:07:36;10.75;;;6.88;;
56810;SDS011;42691;47.234;27.494;2022-12-07T04:10:02;9.77;;;7.53;;
56810;SDS011;42691;47.234;27.494;2022-12-07T04:12:29;11.63;;;7.88;;
56810;SDS011;42691;47.234;27.494;2022-12-07T04:14:54;13.00;;;7.78;;
56810;SDS011;42691;47.234;27.494;2022-12-07T04:17:20;11.30;;;9.35;;
56810;SDS011;42691;47.234;27.494;2022-12-07T04:19:45;10.30;;;8.70;;
56810;SDS011;42691;47.234;27.494;2022-12-07T04:22:11;14.30;;;9.68;;
56810;SDS011;42691;47.234;27.494;2022-12-07T04:24:36;12.85;;;8.52;;
56810;SDS011;42691;47.234;27.494;2022-12-07T04:27:02;15.73;;;10.98;;
56810;SDS011;42691;47.234;27.494;2022-12-07T04:29:28;10.48;;;8.05;;
56810;SDS011;42691;47.234;27.494;2022-12-07T04:31:53;13.13;;;9.40;;
56810;SDS011;42691;47.234;27.494;2022-12-07T04:34:19;15.55;;;9.85;;
56810;SDS011;42691;47.234;27.494;2022-12-07T04:36:45;13.00;;;9.35;;
56810;SDS011;42691;47.234;27.494;2022-12-07T04:39:30;12.48;;;10.05;;
56810;SDS011;42691;47.234;27.494;2022-12-07T04:41:57;15.43;;;9.40;;
56810;SDS011;42691;47.234;27.494;2022-12-07T04:44:23;17.85;;;11.15;;
56810;SDS011;42691;47.234;27.494;2022-12-07T04:46:50;11.55;;;10.35;;
56810;SDS011;42691;47.234;27.494;2022-12-07T04:49:16;15.57;;;9.35;;
56810;SDS011;42691;47.234;27.494;2022-12-07T04:51:42;13.05;;;9.57;;
56810;SDS011;42691;47.234;27.494;2022-12-07T04:54:08;14.15;;;8.95;;
56810;SDS011;42691;47.234;27.494;2022-12-07T04:56:34;11.48;;;6.70;;
56810;SDS011;42691;47.234;27.494;2022-12-07T04:59:00;12.90;;;8.85;;
56810;SDS011;42691;47.234;27.494;2022-12-07T05:01:26;12.25;;;8.85;;
56810;SDS011;42691;47.234;27.494;2022-12-07T05:03:51;15.77;;;9.88;;
56810;SDS011;42691;47.234;27.494;2022-12-07T05:06:17;11.43;;;8.57;;
56810;SDS011;42691;47.234;27.494;2022-12-07T05:08:43;15.50;;;8.35;;
56810;SDS011;42691;47.234;27.494;2022-12-07T05:11:09;10.82;;;8.13;;
56810;SDS011;42691;47.234;27.494;2022-12-07T05:13:55;13.77;;;9.88;;
56810;SDS011;42691;47.234;27.494;2022-12-07T05:16:20;12.25;;;9.63;;
56810;SDS011;42691;47.234;27.494;2022-12-07T05:18:46;15.50;;;9.15;;
56810;SDS011;42691;47.234;27.494;2022-12-07T05:21:11;14.32;;;8.98;;
56810;SDS011;42691;47.234;27.494;2022-12-07T05:23:36;14.05;;;9.82;;
56810;SDS011;42691;47.234;27.494;2022-12-07T05:26:02;14.25;;;10.57;;
56810;SDS011;42691;47.234;27.494;2022-12-07T05:28:27;15.60;;;9.88;;
56810;SDS011;42691;47.234;27.494;2022-12-07T05:30:53;12.55;;;9.20;;
56810;SDS011;42691;47.234;27.494;2022-12-07T05:33:18;17.85;;;8.60;;
56810;SDS011;42691;47.234;27.494;2022-12-07T05:35:43;15.90;;;11.70;;
56810;SDS011;42691;47.234;27.494;2022-12-07T05:38:10;15.70;;;7.95;;
56810;SDS011;42691;47.234;27.494;2022-12-07T05:40:36;12.02;;;9.38;;
56810;SDS011;42691;47.234;27.494;2022-12-07T05:43:02;12.05;;;8.73;;
56810;SDS011;42691;47.234;27.494;2022-12-07T05:45:27;11.45;;;9.57;;
56810;SDS011;42691;47.234;27.494;2022-12-07T05:47:52;12.07;;;8.48;;
56810;SDS011;42691;47.234;27.494;2022-12-07T05:50:18;14.60;;;10.88;;
56810;SDS011;42691;47.234;27.494;2022-12-07T05:52:43;17.50;;;10.18;;
56810;SDS011;42691;47.234;27.494;2022-12-07T05:55:09;19.58;;;10.95;;
56810;SDS011;42691;47.234;27.494;2022-12-07T05:57:34;15.43;;;9.95;;
56810;SDS011;42691;47.234;27.494;2022-12-07T05:59:59;16.83;;;12.68;;
56810;SDS011;42691;47.234;27.494;2022-12-07T06:02:25;13.82;;;11.00;;
56810;SDS011;42691;47.234;27.494;2022-12-07T06:04:51;17.48;;;15.65;;
56810;SDS011;42691;47.234;27.494;2022-12-07T06:07:16;23.50;;;15.25;;
56810;SDS011;42691;47.234;27.494;2022-12-07T06:09:42;20.00;;;17.40;;
56810;SDS011;42691;47.234;27.494;2022-12-07T06:12:09;18.23;;;16.33;;
56810;SDS011;42691;47.234;27.494;2022-12-07T06:14:55;21.83;;;16.85;;
56810;SDS011;42691;47.234;27.494;2022-12-07T06:17:21;15.93;;;13.45;;
56810;SDS011;42691;47.234;27.494;2022-12-07T06:19:46;16.05;;;13.07;;
56810;SDS011;42691;47.234;27.494;2022-12-07T06:22:12;16.50;;;12.23;;
56810;SDS011;42691;47.234;27.494;2022-12-07T06:24:37;12.35;;;10.95;;
56810;SDS011;42691;47.234;27.494;2022-12-07T06:27:04;19.95;;;15.02;;
56810;SDS011;42691;47.234;27.494;2022-12-07T06:29:30;15.57;;;12.50;;
56810;SDS011;42691;47.234;27.494;2022-12-07T06:31:55;15.73;;;14.15;;
56810;SDS011;42691;47.234;27.494;2022-12-07T06:34:22;18.38;;;14.23;;
56810;SDS011;42691;47.234;27.494;2022-12-07T06:36:48;16.35;;;13.15;;
56810;SDS011;42691;47.234;27.494;2022-12-07T06:39:20;18.67;;;12.50;;
56810;SDS011;42691;47.234;27.494;2022-12-07T06:41:46;16.85;;;14.13;;
56810;SDS011;42691;47.234;27.494;2022-12-07T06:44:12;21.27;;;16.85;;
56810;SDS011;42691;47.234;27.494;2022-12-07T06:46:38;19.00;;;13.85;;
56810;SDS011;42691;47.234;27.494;2022-12-07T06:49:04;17.13;;;15.25;;
56810;SDS011;42691;47.234;27.494;2022-12-07T06:51:30;16.83;;;14.80;;
56810;SDS011;42691;47.234;27.494;2022-12-07T06:53:56;24.50;;;10.07;;
56810;SDS011;42691;47.234;27.494;2022-12-07T06:56:22;99.38;;;27.55;;
56810;SDS011;42691;47.234;27.494;2022-12-07T06:58:48;30.98;;;16.35;;
56810;SDS011;42691;47.234;27.494;2022-12-07T07:01:14;22.98;;;13.85;;
56810;SDS011;42691;47.234;27.494;2022-12-07T07:03:41;19.88;;;11.63;;
56810;SDS011;42691;47.234;27.494;2022-12-07T07:06:07;24.73;;;13.75;;
56810;SDS011;42691;47.234;27.494;2022-12-07T07:08:34;16.17;;;13.70;;
56810;SDS011;42691;47.234;27.494;2022-12-07T07:10:59;15.48;;;12.20;;
56810;SDS011;42691;47.234;27.494;2022-12-07T07:13:25;15.02;;;11.40;;
56810;SDS011;42691;47.234;27.494;2022-12-07T07:15:51;151.43;;;40.75;;
56810;SDS011;42691;47.234;27.494;2022-12-07T07:18:17;48.95;;;19.77;;
56810;SDS011;42691;47.234;27.494;2022-12-07T07:20:42;17.63;;;13.88;;
56810;SDS011;42691;47.234;27.494;2022-12-07T07:23:08;19.15;;;14.57;;
56810;SDS011;42691;47.234;27.494;2022-12-07T07:25:33;20.77;;;15.82;;
56810;SDS011;42691;47.234;27.494;2022-12-07T07:27:59;19.85;;;14.82;;
56810;SDS011;42691;47.234;27.494;2022-12-07T07:30:25;24.90;;;16.38;;
56810;SDS011;42691;47.234;27.494;2022-12-07T07:32:51;18.92;;;13.77;;
56810;SDS011;42691;47.234;27.494;2022-12-07T07:35:24;18.52;;;16.23;;
56810;SDS011;42691;47.234;27.494;2022-12-07T07:37:51;18.95;;;14.10;;
56810;SDS011;42691;47.234;27.494;2022-12-07T07:40:17;18.73;;;15.63;;
56810;SDS011;42691;47.234;27.494;2022-12-07T07:42:42;18.58;;;14.13;;
56810;SDS011;42691;47.234;27.494;2022-12-07T07:45:08;19.15;;;14.65;;
56810;SDS011;42691;47.234;27.494;2022-12-07T07:47:34;16.48;;;12.23;;
56810;SDS011;42691;47.234;27.494;2022-12-07T07:49:59;20.23;;;16.17;;
56810;SDS011;42691;47.234;27.494;2022-12-07T07:52:25;17.15;;;12.63;;
56810;SDS011;42691;47.234;27.494;2022-12-07T07:54:51;18.65;;;14.43;;
56810;SDS011;42691;47.234;27.494;2022-12-07T07:57:16;21.02;;;15.85;;
56810;SDS011;42691;47.234;27.494;2022-12-07T07:59:42;22.10;;;16.67;;
56810;SDS011;42691;47.234;27.494;2022-12-07T08:02:14;22.70;;;19.95;;
56810;SDS011;42691;47.234;27.494;2022-12-07T08:04:41;23.52;;;21.15;;
56810;SDS011;42691;47.234;27.494;2022-12-07T08:07:07;30.00;;;23.73;;
56810;SDS011;42691;47.234;27.494;2022-12-07T08:09:32;17.88;;;15.55;;
56810;SDS011;42691;47.234;27.494;2022-12-07T08:11:58;18.52;;;15.15;;
56810;SDS011;42691;47.234;27.494;2022-12-07T08:14:24;15.20;;;13.60;;
56810;SDS011;42691;47.234;27.494;2022-12-07T08:16:49;16.85;;;13.07;;
56810;SDS011;42691;47.234;27.494;2022-12-07T08:19:15;17.20;;;13.43;;
56810;SDS011;42691;47.234;27.494;2022-12-07T08:21:40;19.65;;;12.50;;
56810;SDS011;42691;47.234;27.494;2022-12-07T08:24:06;16.88;;;11.40;;
56810;SDS011;42691;47.234;27.494;2022-12-07T08:26:31;15.65;;;11.82;;
56810;SDS011;42691;47.234;27.494;2022-12-07T08:28:57;14.90;;;11.40;;
56810;SDS011;42691;47.234;27.494;2022-12-07T08:31:22;17.67;;;12.65;;
56810;SDS011;42691;47.234;27.494;2022-12-07T08:33:48;18.88;;;13.48;;
56810;SDS011;42691;47.234;27.494;2022-12-07T08:36:13;15.70;;;11.88;;
56810;SDS011;42691;47.234;27.494;2022-12-07T08:38:39;20.92;;;13.13;;
56810;SDS011;42691;47.234;27.494;2022-12-07T08:41:06;15.35;;;10.13;;
56810;SDS011;42691;47.234;27.494;2022-12-07T08:43:32;16.25;;;10.50;;
56810;SDS011;42691;47.234;27.494;2022-12-07T08:48:56;18.05;;;12.05;;
56810;SDS011;42691;47.234;27.494;2022-12-07T08:51:26;13.38;;;10.10;;
56810;SDS011;42691;47.234;27.494;2022-12-07T08:53:52;14.45;;;11.43;;
56810;SDS011;42691;47.234;27.494;2022-12-07T08:56:20;19.33;;;10.63;;
56810;SDS011;42691;47.234;27.494;2022-12-07T08:58:46;13.50;;;10.85;;
56810;SDS011;42691;47.234;27.494;2022-12-07T09:01:13;15.10;;;10.95;;
56810;SDS011;42691;47.234;27.494;2022-12-07T09:03:38;14.00;;;10.50;;
56810;SDS011;42691;47.234;27.494;2022-12-07T09:06:04;12.80;;;8.82;;
56810;SDS011;42691;47.234;27.494;2022-12-07T09:08:31;14.70;;;10.63;;
56810;SDS011;42691;47.234;27.494;2022-12-07T09:11:00;16.65;;;11.60;;
56810;SDS011;42691;47.234;27.494;2022-12-07T09:13:25;18.15;;;12.63;;
56810;SDS011;42691;47.234;27.494;2022-12-07T09:15:51;18.13;;;14.90;;
56810;SDS011;42691;47.234;27.494;2022-12-07T09:18:16;17.65;;;12.80;;
56810;SDS011;42691;47.234;27.494;2022-12-07T09:20:42;12.05;;;10.02;;
56810;SDS011;42691;47.234;27.494;2022-12-07T09:23:07;14.32;;;10.48;;
56810;SDS011;42691;47.234;27.494;2022-12-07T09:25:33;12.18;;;10.90;;
56810;SDS011;42691;47.234;27.494;2022-12-07T09:27:59;16.48;;;11.52;;
56810;SDS011;42691;47.234;27.494;2022-12-07T09:30:25;17.05;;;13.23;;
56810;SDS011;42691;47.234;27.494;2022-12-07T09:32:52;14.85;;;10.88;;
56810;SDS011;42691;47.234;27.494;2022-12-07T09:35:20;11.57;;;9.05;;
56810;SDS011;42691;47.234;27.494;2022-12-07T09:37:45;22.20;;;10.65;;
56810;SDS011;42691;47.234;27.494;2022-12-07T09:40:11;11.20;;;9.52;;
56810;SDS011;42691;47.234;27.494;2022-12-07T09:42:38;13.75;;;12.35;;
56810;SDS011;42691;47.234;27.494;2022-12-07T09:45:11;11.40;;;9.27;;
56810;SDS011;42691;47.234;27.494;2022-12-07T09:47:44;13.13;;;8.98;;
56810;SDS011;42691;47.234;27.494;2022-12-07T09:50:13;13.70;;;9.85;;
56810;SDS011;42691;47.234;27.494;2022-12-07T09:52:40;14.15;;;8.45;;
56810;SDS011;42691;47.234;27.494;2022-12-07T09:55:09;11.88;;;9.93;;
56810;SDS011;42691;47.234;27.494;2022-12-07T09:57:37;15.73;;;12.35;;
56810;SDS011;42691;47.234;27.494;2022-12-07T10:00:04;15.55;;;8.95;;
56810;SDS011;42691;47.234;27.494;2022-12-07T10:02:38;19.23;;;12.07;;
56810;SDS011;42691;47.234;27.494;2022-12-07T10:05:07;13.30;;;10.80;;
56810;SDS011;42691;47.234;27.494;2022-12-07T10:07:37;14.88;;;11.88;;
56810;SDS011;42691;47.234;27.494;2022-12-07T10:10:04;15.18;;;9.70;;
56810;SDS011;42691;47.234;27.494;2022-12-07T10:12:57;13.80;;;10.05;;
56810;SDS011;42691;47.234;27.494;2022-12-07T10:15:23;13.98;;;10.02;;
56810;SDS011;42691;47.234;27.494;2022-12-07T10:18:13;11.20;;;9.30;;
56810;SDS011;42691;47.234;27.494;2022-12-07T10:20:44;11.30;;;9.15;;
56810;SDS011;42691;47.234;27.494;2022-12-07T10:23:17;12.70;;;9.25;;
56810;SDS011;42691;47.234;27.494;2022-12-07T10:25:43;12.95;;;9.13;;
56810;SDS011;42691;47.234;27.494;2022-12-07T10:28:14;14.43;;;9.73;;
56810;SDS011;42691;47.234;27.494;2022-12-07T10:30:48;14.70;;;9.60;;
56810;SDS011;42691;47.234;27.494;2022-12-07T10:34:20;15.25;;;10.95;;
56810;SDS011;42691;47.234;27.494;2022-12-07T10:36:21;12.23;;;10.65;;
56810;SDS011;42691;47.234;27.494;2022-12-07T10:39:12;17.42;;;11.10;;
56810;SDS011;42691;47.234;27.494;2022-12-07T10:42:02;17.10;;;12.10;;
56810;SDS011;42691;47.234;27.494;2022-12-07T10:44:30;20.13;;;11.70;;
56810;SDS011;42691;47.234;27.494;2022-12-07T10:49:36;14.07;;;10.13;;
56810;SDS011;42691;47.234;27.494;2022-12-07T10:52:14;13.88;;;9.60;;
56810;SDS011;42691;47.234;27.494;2022-12-07T10:57:27;16.73;;;11.30;;
56810;SDS011;42691;47.234;27.494;2022-12-07T11:00:24;14.43;;;12.05;;
56810;SDS011;42691;47.234;27.494;2022-12-07T11:05:30;14.43;;;11.52;;
56810;SDS011;42691;47.234;27.494;2022-12-07T11:08:15;11.13;;;9.77;;
56810;SDS011;42691;47.234;27.494;2022-12-07T11:16:48;14.05;;;9.52;;
56810;SDS011;42691;47.234;27.494;2022-12-07T11:24:31;13.32;;;9.75;;
56810;SDS011;42691;47.234;27.494;2022-12-07T11:35:08;16.75;;;13.77;;
56810;SDS011;42691;47.234;27.494;2022-12-07T11:37:43;15.27;;;11.52;;
56810;SDS011;42691;47.234;27.494;2022-12-07T11:43:32;16.35;;;10.80;;
56810;SDS011;42691;47.234;27.494;2022-12-07T11:45:46;17.60;;;13.43;;
56810;SDS011;42691;47.234;27.494;2022-12-07T11:48:20;16.15;;;12.35;;
56810;SDS011;42691;47.234;27.494;2022-12-07T11:50:54;16.77;;;12.43;;
56810;SDS011;42691;47.234;27.494;2022-12-07T11:58:41;13.23;;;11.85;;
56810;SDS011;42691;47.234;27.494;2022-12-07T12:03:46;16.42;;;12.48;;
56810;SDS011;42691;47.234;27.494;2022-12-07T12:06:14;14.60;;;12.82;;
56810;SDS011;42691;47.234;27.494;2022-12-07T12:08:45;15.55;;;10.70;;
56810;SDS011;42691;47.234;27.494;2022-12-07T12:22:21;14.60;;;10.13;;
56810;SDS011;42691;47.234;27.494;2022-12-07T12:24:55;16.50;;;11.02;;
56810;SDS011;42691;47.234;27.494;2022-12-07T12:27:25;14.55;;;11.45;;
56810;SDS011;42691;47.234;27.494;2022-12-07T12:29:55;16.08;;;10.98;;
56810;SDS011;42691;47.234;27.494;2022-12-07T12:32:30;15.82;;;11.73;;
56810;SDS011;42691;47.234;27.494;2022-12-07T12:35:22;14.20;;;10.63;;
56810;SDS011;42691;47.234;27.494;2022-12-07T12:37:54;15.07;;;11.10;;
56810;SDS011;42691;47.234;27.494;2022-12-07T12:42:46;16.35;;;11.65;;
56810;SDS011;42691;47.234;27.494;2022-12-07T12:45:20;16.52;;;10.20;;
56810;SDS011;42691;47.234;27.494;2022-12-07T12:47:54;19.83;;;13.02;;
56810;SDS011;42691;47.234;27.494;2022-12-07T12:50:23;20.17;;;14.18;;
56810;SDS011;42691;47.234;27.494;2022-12-07T12:52:54;15.13;;;11.73;;
56810;SDS011;42691;47.234;27.494;2022-12-07T13:00:45;21.20;;;12.93;;
56810;SDS011;42691;47.234;27.494;2022-12-07T13:03:26;18.60;;;11.55;;
56810;SDS011;42691;47.234;27.494;2022-12-07T13:09:00;15.60;;;11.65;;
56810;SDS011;42691;47.234;27.494;2022-12-07T13:11:37;16.40;;;11.43;;
56810;SDS011;42691;47.234;27.494;2022-12-07T13:17:04;18.05;;;13.60;;
56810;SDS011;42691;47.234;27.494;2022-12-07T13:28:14;24.77;;;19.20;;
56810;SDS011;42691;47.234;27.494;2022-12-07T13:31:04;26.02;;;19.38;;
56810;SDS011;42691;47.234;27.494;2022-12-07T13:33:38;22.73;;;20.17;;
56810;SDS011;42691;47.234;27.494;2022-12-07T13:36:03;23.48;;;18.48;;
56810;SDS011;42691;47.234;27.494;2022-12-07T13:38:48;24.90;;;21.08;;
56810;SDS011;42691;47.234;27.494;2022-12-07T13:41:19;23.20;;;20.80;;
56810;SDS011;42691;47.234;27.494;2022-12-07T13:46:22;28.48;;;22.10;;
56810;SDS011;42691;47.234;27.494;2022-12-07T13:48:51;29.80;;;22.60;;
56810;SDS011;42691;47.234;27.494;2022-12-07T13:51:17;30.55;;;27.35;;
56810;SDS011;42691;47.234;27.494;2022-12-07T13:56:21;24.25;;;21.63;;
56810;SDS011;42691;47.234;27.494;2022-12-07T13:58:59;28.73;;;22.25;;
56810;SDS011;42691;47.234;27.494;2022-12-07T14:01:25;29.17;;;22.63;;
56810;SDS011;42691;47.234;27.494;2022-12-07T14:03:51;25.67;;;20.77;;
56810;SDS011;42691;47.234;27.494;2022-12-07T14:06:18;32.10;;;22.92;;
56810;SDS011;42691;47.234;27.494;2022-12-07T14:08:47;25.27;;;19.70;;
56810;SDS011;42691;47.234;27.494;2022-12-07T14:11:14;27.02;;;20.00;;
56810;SDS011;42691;47.234;27.494;2022-12-07T14:18:48;22.55;;;17.05;;
56810;SDS011;42691;47.234;27.494;2022-12-07T14:21:14;17.83;;;15.65;;
56810;SDS011;42691;47.234;27.494;2022-12-07T14:23:43;19.98;;;16.95;;
56810;SDS011;42691;47.234;27.494;2022-12-07T14:26:12;22.83;;;20.40;;
56810;SDS011;42691;47.234;27.494;2022-12-07T14:28:40;23.45;;;19.67;;
56810;SDS011;42691;47.234;27.494;2022-12-07T14:31:11;25.73;;;20.20;;
56810;SDS011;42691;47.234;27.494;2022-12-07T14:33:41;23.05;;;16.95;;
56810;SDS011;42691;47.234;27.494;2022-12-07T14:36:13;26.08;;;18.55;;
56810;SDS011;42691;47.234;27.494;2022-12-07T14:38:39;26.65;;;21.63;;
56810;SDS011;42691;47.234;27.494;2022-12-07T14:41:14;32.90;;;28.67;;
56810;SDS011;42691;47.234;27.494;2022-12-07T14:44:02;31.80;;;24.40;;
56810;SDS011;42691;47.234;27.494;2022-12-07T14:46:33;28.45;;;24.63;;
56810;SDS011;42691;47.234;27.494;2022-12-07T14:48:58;34.80;;;29.90;;
56810;SDS011;42691;47.234;27.494;2022-12-07T14:51:24;35.53;;;28.02;;
56810;SDS011;42691;47.234;27.494;2022-12-07T14:53:50;33.05;;;24.15;;
56810;SDS011;42691;47.234;27.494;2022-12-07T14:56:17;29.45;;;22.25;;
56810;SDS011;42691;47.234;27.494;2022-12-07T14:58:42;24.25;;;20.65;;
56810;SDS011;42691;47.234;27.494;2022-12-07T15:01:08;25.83;;;20.20;;
56810;SDS011;42691;47.234;27.494;2022-12-07T15:03:33;35.42;;;22.30;;
56810;SDS011;42691;47.234;27.494;2022-12-07T15:06:04;24.35;;;20.10;;
56810;SDS011;42691;47.234;27.494;2022-12-07T15:08:30;29.00;;;23.05;;
56810;SDS011;42691;47.234;27.494;2022-12-07T15:10:56;25.92;;;20.17;;
56810;SDS011;42691;47.234;27.494;2022-12-07T15:13:21;27.83;;;22.63;;
56810;SDS011;42691;47.234;27.494;2022-12-07T15:16:07;24.60;;;21.98;;
56810;SDS011;42691;47.234;27.494;2022-12-07T15:18:38;31.42;;;23.13;;
56810;SDS011;42691;47.234;27.494;2022-12-07T15:21:03;27.63;;;24.77;;
56810;SDS011;42691;47.234;27.494;2022-12-07T15:23:29;23.35;;;19.70;;
56810;SDS011;42691;47.234;27.494;2022-12-07T15:25:54;24.77;;;22.15;;
56810;SDS011;42691;47.234;27.494;2022-12-07T15:28:20;33.28;;;20.88;;
56810;SDS011;42691;47.234;27.494;2022-12-07T15:30:45;27.65;;;22.00;;
56810;SDS011;42691;47.234;27.494;2022-12-07T15:33:12;24.25;;;21.77;;
56810;SDS011;42691;47.234;27.494;2022-12-07T15:35:41;25.30;;;22.52;;
56810;SDS011;42691;47.234;27.494;2022-12-07T15:38:08;28.55;;;21.75;;
56810;SDS011;42691;47.234;27.494;2022-12-07T15:40:33;21.38;;;18.88;;
56810;SDS011;42691;47.234;27.494;2022-12-07T15:43:00;28.75;;;23.15;;
56810;SDS011;42691;47.234;27.494;2022-12-07T15:45:25;22.40;;;20.10;;
56810;SDS011;42691;47.234;27.494;2022-12-07T15:47:51;26.33;;;20.40;;
56810;SDS011;42691;47.234;27.494;2022-12-07T15:50:16;22.60;;;19.55;;
56810;SDS011;42691;47.234;27.494;2022-12-07T15:52:42;13.02;;;4.88;;
56810;SDS011;42691;47.234;27.494;2022-12-07T15:55:08;27.17;;;21.63;;
56810;SDS011;42691;47.234;27.494;2022-12-07T15:57:35;28.42;;;23.02;;
56810;SDS011;42691;47.234;27.494;2022-12-07T16:00:02;20.63;;;18.42;;
56810;SDS011;42691;47.234;27.494;2022-12-07T16:02:28;29.67;;;21.95;;
56810;SDS011;42691;47.234;27.494;2022-12-07T16:04:54;25.45;;;21.38;;
56810;SDS011;42691;47.234;27.494;2022-12-07T16:07:19;31.10;;;23.83;;